APL New Jersey — A8NM6 — position and weather

sailwx.info

Track history (hours):
 
Tides and Currents Weather Stations Pressure Air Temp Water Temp Dewpoint Dewpoint Depression Visibility Wind Speed Wind Dir Waves Ship Positions

APL New Jersey

Last reported at 2014-Aug-22 12:29 UTC. Time now 2014-Aug-22 17:47 UTC.
Position N 21°40' E 119°12'.

Length 293 m; draft 12.8 m.

Type: Ship. MMSI: 636013522.

Date/timePositionNaut miles runAvg speedWind from/ knotsBaromVisibWave heightAir tempDewpointWater temp
2014-Aug-22 12:29N 21°40' E 119°12'4217.8
2014-Aug-22 10:05N 22°10' E 119°44'1118.9
2014-Aug-22 09:30N 22°18' E 119°53'1918.5
2014-Aug-22 08:29N 22°29' E 120°09'1011.0
2014-Aug-22 07:33N 22°33' E 120°19'0 0.4
2014-Aug-22 06:29N 22°34' E 120°19'0 0.0
2014-Aug-22 05:29N 22°34' E 120°19'0 0.0
2014-Aug-22 04:29N 22°34' E 120°19'0 0.0
2014-Aug-22 03:23N 22°34' E 120°19'0 0.0
2014-Aug-22 01:29N 22°34' E 120°19'0 0.0
2014-Aug-22 00:23N 22°34' E 120°19'0 0.0
2014-Aug-21 21:29N 22°34' E 120°19'0 0.0
2014-Aug-21 20:29N 22°34' E 120°19'0 0.0
2014-Aug-21 19:29N 22°34' E 120°19'0 0.0
2014-Aug-21 18:29N 22°34' E 120°19'0 0.0
2014-Aug-21 17:29N 22°34' E 120°19'0 0.0
2014-Aug-21 16:29N 22°34' E 120°19'0 0.0
2014-Aug-21 15:29N 22°34' E 120°19'0 0.0
2014-Aug-21 14:29N 22°34' E 120°19'0 0.0
2014-Aug-21 13:29N 22°34' E 120°19'0 0.1
2014-Aug-21 12:29N 22°34' E 120°19'5 5.7
2014-Aug-21 11:33N 22°32' E 120°14'1616.3
2014-Aug-21 10:33N 22°42' E 120°00'10517.5
2014-Aug-21 04:33N 24°26' E 120°15'  
2014-Aug-18 12:33N 34°43' E 139°35'1919.6
2014-Aug-18 11:34N 35°01' E 139°42'1515.1
2014-Aug-18 10:34N 35°16' E 139°46'1211.5
2014-Aug-18 09:34N 35°27' E 139°41'1 0.5
2014-Aug-18 08:31N 35°26' E 139°41'0 0.0
2014-Aug-18 07:31N 35°26' E 139°41'0 0.0
2014-Aug-18 06:31N 35°26' E 139°41'0 0.0
2014-Aug-18 05:31N 35°26' E 139°41'0 0.0
2014-Aug-18 04:31N 35°26' E 139°41'0 0.0
2014-Aug-18 03:31N 35°26' E 139°41'0 0.0
2014-Aug-18 02:31N 35°26' E 139°41'0 0.0
2014-Aug-18 01:31N 35°26' E 139°41'0 0.0
2014-Aug-18 00:28N 35°26' E 139°41'37 6.0
2014-Aug-17 18:21N 34°52' E 139°56'1012.7
2014-Aug-17 17:33N 34°55' E 140°08'1412.9
2014-Aug-17 16:30N 35°02' E 140°22'1313.2
2014-Aug-17 15:29N 35°11' E 140°34'1213.1
2014-Aug-17 14:33N 35°20' E 140°44'1313.5
2014-Aug-17 13:34N 35°31' E 140°53'1413.7
2014-Aug-17 12:33N 35°42' E 141°03'1313.2
2014-Aug-17 11:33N 35°52' E 141°15'1313.5
2014-Aug-17 10:33N 36°01' E 141°26'1413.6
2014-Aug-17 09:31N 36°12' E 141°38'1313.5
2014-Aug-17 08:32N 36°21' E 141°50'  
Track history (hours):
 
Tides and Currents Weather Stations Pressure Air Temp Water Temp Dewpoint Dewpoint Depression Visibility Wind Speed Wind Dir Waves Ship Positions

APL New Jersey

Last reported at 2014-Aug-22 12:29 UTC. Time now 2014-Aug-22 17:47 UTC.
Position N 21°40' E 119°12'.

Length 293 m; draft 12.8 m.

Type: Ship. MMSI: 636013522.

Date/timePositionNaut miles runAvg speedWind from/ knotsBaromVisibWave heightAir tempDewpointWater temp
2014-Aug-22 12:29N 21°40' E 119°12'4217.8
2014-Aug-22 10:05N 22°10' E 119°44'1118.9
2014-Aug-22 09:30N 22°18' E 119°53'1918.5
2014-Aug-22 08:29N 22°29' E 120°09'1011.0
2014-Aug-22 07:33N 22°33' E 120°19'0 0.4
2014-Aug-22 06:29N 22°34' E 120°19'0 0.0
2014-Aug-22 05:29N 22°34' E 120°19'0 0.0
2014-Aug-22 04:29N 22°34' E 120°19'0 0.0
2014-Aug-22 03:23N 22°34' E 120°19'0 0.0
2014-Aug-22 01:29N 22°34' E 120°19'0 0.0
2014-Aug-22 00:23N 22°34' E 120°19'0 0.0
2014-Aug-21 21:29N 22°34' E 120°19'0 0.0
2014-Aug-21 20:29N 22°34' E 120°19'0 0.0
2014-Aug-21 19:29N 22°34' E 120°19'0 0.0
2014-Aug-21 18:29N 22°34' E 120°19'0 0.0
2014-Aug-21 17:29N 22°34' E 120°19'0 0.0
2014-Aug-21 16:29N 22°34' E 120°19'0 0.0
2014-Aug-21 15:29N 22°34' E 120°19'0 0.0
2014-Aug-21 14:29N 22°34' E 120°19'0 0.0
2014-Aug-21 13:29N 22°34' E 120°19'0 0.1
2014-Aug-21 12:29N 22°34' E 120°19'5 5.7
2014-Aug-21 11:33N 22°32' E 120°14'1616.3
2014-Aug-21 10:33N 22°42' E 120°00'10517.5
2014-Aug-21 04:33N 24°26' E 120°15'  
2014-Aug-18 12:33N 34°43' E 139°35'1919.6
2014-Aug-18 11:34N 35°01' E 139°42'1515.1
2014-Aug-18 10:34N 35°16' E 139°46'1211.5
2014-Aug-18 09:34N 35°27' E 139°41'1 0.5
2014-Aug-18 08:31N 35°26' E 139°41'0 0.0
2014-Aug-18 07:31N 35°26' E 139°41'0 0.0
2014-Aug-18 06:31N 35°26' E 139°41'0 0.0
2014-Aug-18 05:31N 35°26' E 139°41'0 0.0
2014-Aug-18 04:31N 35°26' E 139°41'0 0.0
2014-Aug-18 03:31N 35°26' E 139°41'0 0.0
2014-Aug-18 02:31N 35°26' E 139°41'0 0.0
2014-Aug-18 01:31N 35°26' E 139°41'0 0.0
2014-Aug-18 00:28N 35°26' E 139°41'37 6.0
2014-Aug-17 18:21N 34°52' E 139°56'1012.7
2014-Aug-17 17:33N 34°55' E 140°08'1412.9
2014-Aug-17 16:30N 35°02' E 140°22'1313.2
2014-Aug-17 15:29N 35°11' E 140°34'1213.1
2014-Aug-17 14:33N 35°20' E 140°44'1313.5
2014-Aug-17 13:34N 35°31' E 140°53'1413.7
2014-Aug-17 12:33N 35°42' E 141°03'1313.2
2014-Aug-17 11:33N 35°52' E 141°15'1313.5
2014-Aug-17 10:33N 36°01' E 141°26'1413.6
2014-Aug-17 09:31N 36°12' E 141°38'1313.5
2014-Aug-17 08:32N 36°21' E 141°50'  

Dump ship's entire track history